sensor_id;sensor_type;location;lat;lon;timestamp;temperature;humidity
54938;DHT22;52756;52.826;6.214;2022-07-06T00:00:46;16.20;57.40
54938;DHT22;52756;52.826;6.214;2022-07-06T00:03:11;16.10;57.50
54938;DHT22;52756;52.826;6.214;2022-07-06T00:05:37;16.10;57.60
54938;DHT22;52756;52.826;6.214;2022-07-06T00:08:03;16.10;57.70
54938;DHT22;52756;52.826;6.214;2022-07-06T00:10:28;16.10;57.80
54938;DHT22;52756;52.826;6.214;2022-07-06T00:12:54;16.10;57.90
54938;DHT22;52756;52.826;6.214;2022-07-06T00:15:20;16.10;58.00
54938;DHT22;52756;52.826;6.214;2022-07-06T00:17:45;16.10;58.10
54938;DHT22;52756;52.826;6.214;2022-07-06T00:20:11;16.10;58.30
54938;DHT22;52756;52.826;6.214;2022-07-06T00:22:37;16.10;58.30
54938;DHT22;52756;52.826;6.214;2022-07-06T00:25:03;16.00;58.40
54938;DHT22;52756;52.826;6.214;2022-07-06T00:27:28;16.00;58.40
54938;DHT22;52756;52.826;6.214;2022-07-06T00:29:54;16.00;58.40
54938;DHT22;52756;52.826;6.214;2022-07-06T00:32:20;16.00;58.90
54938;DHT22;52756;52.826;6.214;2022-07-06T00:34:45;16.00;58.60
54938;DHT22;52756;52.826;6.214;2022-07-06T00:37:11;16.00;58.70
54938;DHT22;52756;52.826;6.214;2022-07-06T00:39:37;16.00;58.70
54938;DHT22;52756;52.826;6.214;2022-07-06T00:42:03;16.00;58.70
54938;DHT22;52756;52.826;6.214;2022-07-06T00:44:28;16.10;58.80
54938;DHT22;52756;52.826;6.214;2022-07-06T00:46:54;16.00;58.80
54938;DHT22;52756;52.826;6.214;2022-07-06T00:49:20;16.10;58.90
54938;DHT22;52756;52.826;6.214;2022-07-06T00:52:04;16.00;58.80
54938;DHT22;52756;52.826;6.214;2022-07-06T00:54:31;16.10;58.90
54938;DHT22;52756;52.826;6.214;2022-07-06T00:56:57;16.00;59.00
54938;DHT22;52756;52.826;6.214;2022-07-06T00:59:24;16.10;59.10
54938;DHT22;52756;52.826;6.214;2022-07-06T01:01:50;16.10;59.10
54938;DHT22;52756;52.826;6.214;2022-07-06T01:04:16;16.10;59.20
54938;DHT22;52756;52.826;6.214;2022-07-06T01:06:43;16.10;59.20
54938;DHT22;52756;52.826;6.214;2022-07-06T01:09:10;16.10;59.20
54938;DHT22;52756;52.826;6.214;2022-07-06T01:11:35;16.10;59.20
54938;DHT22;52756;52.826;6.214;2022-07-06T01:14:01;16.10;59.50
54938;DHT22;52756;52.826;6.214;2022-07-06T01:16:27;16.10;59.20
54938;DHT22;52756;52.826;6.214;2022-07-06T01:18:53;16.10;59.30
54938;DHT22;52756;52.826;6.214;2022-07-06T01:21:18;16.10;59.40
54938;DHT22;52756;52.826;6.214;2022-07-06T01:23:46;16.10;59.30
54938;DHT22;52756;52.826;6.214;2022-07-06T01:26:20;16.10;59.30
54938;DHT22;52756;52.826;6.214;2022-07-06T01:28:46;16.20;59.50
54938;DHT22;52756;52.826;6.214;2022-07-06T01:31:15;16.10;58.90
54938;DHT22;52756;52.826;6.214;2022-07-06T01:33:42;16.10;59.40
54938;DHT22;52756;52.826;6.214;2022-07-06T01:36:08;16.10;59.40
54938;DHT22;52756;52.826;6.214;2022-07-06T01:38:52;16.10;59.40
54938;DHT22;52756;52.826;6.214;2022-07-06T01:41:19;16.20;59.50
54938;DHT22;52756;52.826;6.214;2022-07-06T01:43:47;16.20;59.40
54938;DHT22;52756;52.826;6.214;2022-07-06T01:46:13;16.20;59.40
54938;DHT22;52756;52.826;6.214;2022-07-06T01:48:39;16.20;59.30
54938;DHT22;52756;52.826;6.214;2022-07-06T01:51:05;16.20;59.20
54938;DHT22;52756;52.826;6.214;2022-07-06T01:53:31;16.20;59.30
54938;DHT22;52756;52.826;6.214;2022-07-06T01:55:57;16.20;59.30
54938;DHT22;52756;52.826;6.214;2022-07-06T01:58:22;16.20;59.30
54938;DHT22;52756;52.826;6.214;2022-07-06T02:00:48;16.20;59.30
54938;DHT22;52756;52.826;6.214;2022-07-06T02:03:14;16.20;59.30
54938;DHT22;52756;52.826;6.214;2022-07-06T02:05:39;16.20;59.50
54938;DHT22;52756;52.826;6.214;2022-07-06T02:08:05;16.20;59.70
54938;DHT22;52756;52.826;6.214;2022-07-06T02:10:31;16.20;59.80
54938;DHT22;52756;52.826;6.214;2022-07-06T02:12:57;16.20;59.80
54938;DHT22;52756;52.826;6.214;2022-07-06T02:15:22;16.10;59.80
54938;DHT22;52756;52.826;6.214;2022-07-06T02:17:48;16.10;60.00
54938;DHT22;52756;52.826;6.214;2022-07-06T02:20:14;16.10;60.00
54938;DHT22;52756;52.826;6.214;2022-07-06T02:22:39;16.10;60.00
54938;DHT22;52756;52.826;6.214;2022-07-06T02:25:05;16.10;60.00
54938;DHT22;52756;52.826;6.214;2022-07-06T02:27:31;16.10;60.20
54938;DHT22;52756;52.826;6.214;2022-07-06T02:29:57;16.10;60.20
54938;DHT22;52756;52.826;6.214;2022-07-06T02:32:23;16.10;60.10
54938;DHT22;52756;52.826;6.214;2022-07-06T02:34:48;16.10;60.20
54938;DHT22;52756;52.826;6.214;2022-07-06T02:37:14;16.10;60.20
54938;DHT22;52756;52.826;6.214;2022-07-06T02:39:40;16.10;60.30
54938;DHT22;52756;52.826;6.214;2022-07-06T02:42:06;16.10;60.30
54938;DHT22;52756;52.826;6.214;2022-07-06T02:44:31;16.10;60.30
54938;DHT22;52756;52.826;6.214;2022-07-06T02:46:57;16.10;60.30
54938;DHT22;52756;52.826;6.214;2022-07-06T02:49:23;16.10;60.40
54938;DHT22;52756;52.826;6.214;2022-07-06T02:51:48;16.10;60.70
54938;DHT22;52756;52.826;6.214;2022-07-06T02:54:14;16.10;60.40
54938;DHT22;52756;52.826;6.214;2022-07-06T02:56:39;16.10;60.40
54938;DHT22;52756;52.826;6.214;2022-07-06T02:59:05;16.10;60.50
54938;DHT22;52756;52.826;6.214;2022-07-06T03:01:31;16.00;60.40
54938;DHT22;52756;52.826;6.214;2022-07-06T03:03:56;16.00;60.40
54938;DHT22;52756;52.826;6.214;2022-07-06T03:06:22;16.00;60.40
54938;DHT22;52756;52.826;6.214;2022-07-06T03:08:48;16.00;60.40
54938;DHT22;52756;52.826;6.214;2022-07-06T03:11:13;16.10;60.50
54938;DHT22;52756;52.826;6.214;2022-07-06T03:13:39;16.00;60.50
54938;DHT22;52756;52.826;6.214;2022-07-06T03:16:05;16.00;60.40
54938;DHT22;52756;52.826;6.214;2022-07-06T03:18:30;16.00;60.30
54938;DHT22;52756;52.826;6.214;2022-07-06T03:20:56;16.00;60.30
54938;DHT22;52756;52.826;6.214;2022-07-06T03:23:22;16.00;60.20
54938;DHT22;52756;52.826;6.214;2022-07-06T03:25:48;16.00;60.20
54938;DHT22;52756;52.826;6.214;2022-07-06T03:28:13;16.00;60.20
54938;DHT22;52756;52.826;6.214;2022-07-06T03:30:39;16.00;60.20
54938;DHT22;52756;52.826;6.214;2022-07-06T03:33:05;16.00;60.20
54938;DHT22;52756;52.826;6.214;2022-07-06T03:35:31;16.00;60.20
54938;DHT22;52756;52.826;6.214;2022-07-06T03:37:56;16.00;60.20
54938;DHT22;52756;52.826;6.214;2022-07-06T03:40:23;16.00;60.20
54938;DHT22;52756;52.826;6.214;2022-07-06T03:42:48;16.00;60.20
54938;DHT22;52756;52.826;6.214;2022-07-06T03:45:14;16.00;60.30
54938;DHT22;52756;52.826;6.214;2022-07-06T03:47:40;16.00;60.30
54938;DHT22;52756;52.826;6.214;2022-07-06T03:50:06;16.00;60.20
54938;DHT22;52756;52.826;6.214;2022-07-06T03:52:32;16.00;60.20
54938;DHT22;52756;52.826;6.214;2022-07-06T03:54:59;16.00;60.30
54938;DHT22;52756;52.826;6.214;2022-07-06T03:57:25;16.00;60.30
54938;DHT22;52756;52.826;6.214;2022-07-06T03:59:51;16.00;60.30
54938;DHT22;52756;52.826;6.214;2022-07-06T04:02:17;16.00;60.30
54938;DHT22;52756;52.826;6.214;2022-07-06T04:04:42;16.00;60.30
54938;DHT22;52756;52.826;6.214;2022-07-06T04:07:08;16.00;60.40
54938;DHT22;52756;52.826;6.214;2022-07-06T04:09:34;16.10;60.60
54938;DHT22;52756;52.826;6.214;2022-07-06T04:11:59;16.10;60.60
54938;DHT22;52756;52.826;6.214;2022-07-06T04:14:25;16.10;60.70
54938;DHT22;52756;52.826;6.214;2022-07-06T04:16:52;16.10;60.70
54938;DHT22;52756;52.826;6.214;2022-07-06T04:19:18;16.00;60.70
54938;DHT22;52756;52.826;6.214;2022-07-06T04:21:43;16.10;60.90
54938;DHT22;52756;52.826;6.214;2022-07-06T04:24:09;16.10;60.90
54938;DHT22;52756;52.826;6.214;2022-07-06T04:26:35;16.10;60.90
54938;DHT22;52756;52.826;6.214;2022-07-06T04:29:01;16.10;61.00
54938;DHT22;52756;52.826;6.214;2022-07-06T04:31:26;16.10;61.10
54938;DHT22;52756;52.826;6.214;2022-07-06T04:33:52;16.10;61.10
54938;DHT22;52756;52.826;6.214;2022-07-06T04:36:17;16.10;61.10
54938;DHT22;52756;52.826;6.214;2022-07-06T04:38:43;16.10;61.30
54938;DHT22;52756;52.826;6.214;2022-07-06T04:41:09;16.50;61.50
54938;DHT22;52756;52.826;6.214;2022-07-06T04:43:34;16.10;61.40
54938;DHT22;52756;52.826;6.214;2022-07-06T04:46:00;16.20;61.60
54938;DHT22;52756;52.826;6.214;2022-07-06T04:48:26;16.20;61.70
54938;DHT22;52756;52.826;6.214;2022-07-06T04:50:52;16.20;61.70
54938;DHT22;52756;52.826;6.214;2022-07-06T04:53:18;16.20;61.70
54938;DHT22;52756;52.826;6.214;2022-07-06T04:55:43;16.20;62.10
54938;DHT22;52756;52.826;6.214;2022-07-06T04:58:09;16.20;61.60
54938;DHT22;52756;52.826;6.214;2022-07-06T05:00:35;16.30;61.50
54938;DHT22;52756;52.826;6.214;2022-07-06T05:03:00;16.30;61.30
54938;DHT22;52756;52.826;6.214;2022-07-06T05:05:26;16.30;61.10
54938;DHT22;52756;52.826;6.214;2022-07-06T05:07:52;16.30;61.00
54938;DHT22;52756;52.826;6.214;2022-07-06T05:10:17;16.30;60.80
54938;DHT22;52756;52.826;6.214;2022-07-06T05:12:43;16.30;60.70
54938;DHT22;52756;52.826;6.214;2022-07-06T05:15:09;16.40;60.70
54938;DHT22;52756;52.826;6.214;2022-07-06T05:17:35;16.40;60.70
54938;DHT22;52756;52.826;6.214;2022-07-06T05:20:01;16.50;60.80
54938;DHT22;52756;52.826;6.214;2022-07-06T05:22:26;16.70;60.60
54938;DHT22;52756;52.826;6.214;2022-07-06T05:24:52;17.00;60.50
54938;DHT22;52756;52.826;6.214;2022-07-06T05:27:17;17.40;59.90
54938;DHT22;52756;52.826;6.214;2022-07-06T05:29:43;17.70;59.10
54938;DHT22;52756;52.826;6.214;2022-07-06T05:32:09;18.10;58.30
54938;DHT22;52756;52.826;6.214;2022-07-06T05:34:35;18.50;57.60
54938;DHT22;52756;52.826;6.214;2022-07-06T05:37:02;18.90;56.50
54938;DHT22;52756;52.826;6.214;2022-07-06T05:39:28;19.30;55.00
54938;DHT22;52756;52.826;6.214;2022-07-06T05:41:53;19.50;54.40
54938;DHT22;52756;52.826;6.214;2022-07-06T05:44:19;19.60;53.80
54938;DHT22;52756;52.826;6.214;2022-07-06T05:46:45;19.70;53.50
54938;DHT22;52756;52.826;6.214;2022-07-06T05:49:10;19.70;53.50
54938;DHT22;52756;52.826;6.214;2022-07-06T05:51:54;19.70;53.40
54938;DHT22;52756;52.826;6.214;2022-07-06T05:54:20;19.70;53.30
54938;DHT22;52756;52.826;6.214;2022-07-06T05:56:46;19.60;53.10
54938;DHT22;52756;52.826;6.214;2022-07-06T05:59:12;19.60;53.00
54938;DHT22;52756;52.826;6.214;2022-07-06T06:01:37;19.50;52.90
54938;DHT22;52756;52.826;6.214;2022-07-06T06:04:03;19.40;52.90
54938;DHT22;52756;52.826;6.214;2022-07-06T06:06:29;19.30;53.00
54938;DHT22;52756;52.826;6.214;2022-07-06T06:08:56;19.20;53.20
54938;DHT22;52756;52.826;6.214;2022-07-06T06:11:22;19.10;53.70
54938;DHT22;52756;52.826;6.214;2022-07-06T06:13:48;19.10;54.10
54938;DHT22;52756;52.826;6.214;2022-07-06T06:16:13;19.00;54.40
54938;DHT22;52756;52.826;6.214;2022-07-06T06:18:41;18.90;54.70
54938;DHT22;52756;52.826;6.214;2022-07-06T06:21:06;18.80;54.90
54938;DHT22;52756;52.826;6.214;2022-07-06T06:23:32;18.80;55.10
54938;DHT22;52756;52.826;6.214;2022-07-06T06:25:58;18.70;55.20
54938;DHT22;52756;52.826;6.214;2022-07-06T06:28:24;18.60;55.20
54938;DHT22;52756;52.826;6.214;2022-07-06T06:30:49;18.50;55.40
54938;DHT22;52756;52.826;6.214;2022-07-06T06:33:19;18.40;55.40
54938;DHT22;52756;52.826;6.214;2022-07-06T06:35:52;18.40;55.40
54938;DHT22;52756;52.826;6.214;2022-07-06T06:38:20;18.20;55.40
54938;DHT22;52756;52.826;6.214;2022-07-06T06:40:47;18.20;55.70
54938;DHT22;52756;52.826;6.214;2022-07-06T06:43:13;18.10;55.80
54938;DHT22;52756;52.826;6.214;2022-07-06T06:45:38;18.00;56.40
54938;DHT22;52756;52.826;6.214;2022-07-06T06:48:04;17.90;56.20
54938;DHT22;52756;52.826;6.214;2022-07-06T06:50:30;17.90;56.60
54938;DHT22;52756;52.826;6.214;2022-07-06T06:52:56;17.80;57.20
54938;DHT22;52756;52.826;6.214;2022-07-06T06:55:21;17.80;56.90
54938;DHT22;52756;52.826;6.214;2022-07-06T06:57:47;17.70;57.30
54938;DHT22;52756;52.826;6.214;2022-07-06T07:00:13;17.70;56.90
54938;DHT22;52756;52.826;6.214;2022-07-06T07:02:39;17.70;57.00
54938;DHT22;52756;52.826;6.214;2022-07-06T07:05:06;17.70;57.10
54938;DHT22;52756;52.826;6.214;2022-07-06T07:07:31;17.70;57.30
54938;DHT22;52756;52.826;6.214;2022-07-06T07:09:58;17.80;57.70
54938;DHT22;52756;52.826;6.214;2022-07-06T07:12:24;17.90;57.40
54938;DHT22;52756;52.826;6.214;2022-07-06T07:14:50;18.00;56.70
54938;DHT22;52756;52.826;6.214;2022-07-06T07:17:15;18.10;56.60
54938;DHT22;52756;52.826;6.214;2022-07-06T07:19:42;18.30;57.30
54938;DHT22;52756;52.826;6.214;2022-07-06T07:22:07;18.40;56.70
54938;DHT22;52756;52.826;6.214;2022-07-06T07:24:33;18.70;56.10
54938;DHT22;52756;52.826;6.214;2022-07-06T07:26:59;18.90;55.40
54938;DHT22;52756;52.826;6.214;2022-07-06T07:29:25;19.10;55.00
54938;DHT22;52756;52.826;6.214;2022-07-06T07:31:50;19.30;54.80
54938;DHT22;52756;52.826;6.214;2022-07-06T07:34:16;19.40;54.70
54938;DHT22;52756;52.826;6.214;2022-07-06T07:36:42;19.70;54.30
54938;DHT22;52756;52.826;6.214;2022-07-06T07:39:08;19.80;53.80
54938;DHT22;52756;52.826;6.214;2022-07-06T07:41:34;20.00;52.70
54938;DHT22;52756;52.826;6.214;2022-07-06T07:44:00;20.10;52.40
54938;DHT22;52756;52.826;6.214;2022-07-06T07:46:25;20.30;52.10
54938;DHT22;52756;52.826;6.214;2022-07-06T07:48:51;20.40;51.60
54938;DHT22;52756;52.826;6.214;2022-07-06T07:51:17;20.70;51.40
54938;DHT22;52756;52.826;6.214;2022-07-06T07:53:43;20.90;51.10
54938;DHT22;52756;52.826;6.214;2022-07-06T07:56:09;21.10;50.60
54938;DHT22;52756;52.826;6.214;2022-07-06T07:58:35;21.30;50.10
54938;DHT22;52756;52.826;6.214;2022-07-06T08:01:01;21.40;49.80
54938;DHT22;52756;52.826;6.214;2022-07-06T08:03:27;21.50;49.20
54938;DHT22;52756;52.826;6.214;2022-07-06T08:05:52;21.50;48.60
54938;DHT22;52756;52.826;6.214;2022-07-06T08:08:18;21.50;48.40
54938;DHT22;52756;52.826;6.214;2022-07-06T08:10:44;21.50;48.70
54938;DHT22;52756;52.826;6.214;2022-07-06T08:13:10;21.50;49.00
54938;DHT22;52756;52.826;6.214;2022-07-06T08:15:36;21.40;48.00
54938;DHT22;52756;52.826;6.214;2022-07-06T08:18:03;21.30;48.00
54938;DHT22;52756;52.826;6.214;2022-07-06T08:20:29;21.20;48.50
54938;DHT22;52756;52.826;6.214;2022-07-06T08:22:55;21.10;49.00
54938;DHT22;52756;52.826;6.214;2022-07-06T08:25:21;21.10;49.10
54938;DHT22;52756;52.826;6.214;2022-07-06T08:27:47;21.10;49.50
54938;DHT22;52756;52.826;6.214;2022-07-06T08:30:14;21.20;49.00
54938;DHT22;52756;52.826;6.214;2022-07-06T08:32:41;21.30;48.90
54938;DHT22;52756;52.826;6.214;2022-07-06T08:35:07;21.40;48.40
54938;DHT22;52756;52.826;6.214;2022-07-06T08:37:33;21.50;47.60
54938;DHT22;52756;52.826;6.214;2022-07-06T08:39:59;21.50;47.10
54938;DHT22;52756;52.826;6.214;2022-07-06T08:42:30;21.50;47.10
54938;DHT22;52756;52.826;6.214;2022-07-06T08:44:59;21.60;47.10
54938;DHT22;52756;52.826;6.214;2022-07-06T08:47:26;21.60;46.20
54938;DHT22;52756;52.826;6.214;2022-07-06T08:49:53;21.70;45.70
54938;DHT22;52756;52.826;6.214;2022-07-06T08:52:19;21.80;45.60
54938;DHT22;52756;52.826;6.214;2022-07-06T08:54:45;22.00;45.70
54938;DHT22;52756;52.826;6.214;2022-07-06T08:57:11;22.10;45.40
54938;DHT22;52756;52.826;6.214;2022-07-06T08:59:38;22.20;44.70
54938;DHT22;52756;52.826;6.214;2022-07-06T09:02:04;22.40;44.30
54938;DHT22;52756;52.826;6.214;2022-07-06T09:04:31;22.50;43.80
54938;DHT22;52756;52.826;6.214;2022-07-06T09:06:57;22.60;43.90
54938;DHT22;52756;52.826;6.214;2022-07-06T09:09:24;22.80;43.20
54938;DHT22;52756;52.826;6.214;2022-07-06T09:11:50;22.90;43.30
54938;DHT22;52756;52.826;6.214;2022-07-06T09:14:16;22.90;43.50
54938;DHT22;52756;52.826;6.214;2022-07-06T09:16:42;23.00;44.00
54938;DHT22;52756;52.826;6.214;2022-07-06T09:19:10;23.10;44.10
54938;DHT22;52756;52.826;6.214;2022-07-06T09:21:37;23.10;43.60
54938;DHT22;52756;52.826;6.214;2022-07-06T09:24:07;23.20;43.50
54938;DHT22;52756;52.826;6.214;2022-07-06T09:26:33;23.30;43.40
54938;DHT22;52756;52.826;6.214;2022-07-06T09:28:59;23.40;43.40
54938;DHT22;52756;52.826;6.214;2022-07-06T09:31:26;23.60;43.10
54938;DHT22;52756;52.826;6.214;2022-07-06T09:34:00;23.70;42.80
54938;DHT22;52756;52.826;6.214;2022-07-06T09:36:43;23.70;42.20
54938;DHT22;52756;52.826;6.214;2022-07-06T09:41:48;23.50;42.20
54938;DHT22;52756;52.826;6.214;2022-07-06T09:44:20;23.30;42.30
54938;DHT22;52756;52.826;6.214;2022-07-06T09:46:47;23.20;42.30
54938;DHT22;52756;52.826;6.214;2022-07-06T09:49:17;23.10;42.40
54938;DHT22;52756;52.826;6.214;2022-07-06T09:51:45;23.00;42.60
54938;DHT22;52756;52.826;6.214;2022-07-06T09:54:12;22.80;42.60
54938;DHT22;52756;52.826;6.214;2022-07-06T09:56:42;22.70;42.70
54938;DHT22;52756;52.826;6.214;2022-07-06T09:59:09;22.50;43.10
54938;DHT22;52756;52.826;6.214;2022-07-06T10:01:36;22.50;43.30
54938;DHT22;52756;52.826;6.214;2022-07-06T10:04:03;22.40;43.50
54938;DHT22;52756;52.826;6.214;2022-07-06T10:06:29;22.40;43.20
54938;DHT22;52756;52.826;6.214;2022-07-06T10:08:58;22.40;43.10
54938;DHT22;52756;52.826;6.214;2022-07-06T10:11:24;22.40;43.40
54938;DHT22;52756;52.826;6.214;2022-07-06T10:13:55;22.40;43.40
54938;DHT22;52756;52.826;6.214;2022-07-06T10:16:23;22.50;43.60
54938;DHT22;52756;52.826;6.214;2022-07-06T10:18:51;22.60;43.60
54938;DHT22;52756;52.826;6.214;2022-07-06T10:21:21;22.70;43.50
54938;DHT22;52756;52.826;6.214;2022-07-06T10:23:47;22.80;43.20
54938;DHT22;52756;52.826;6.214;2022-07-06T10:26:14;22.90;42.60
54938;DHT22;52756;52.826;6.214;2022-07-06T10:28:41;22.80;42.90
54938;DHT22;52756;52.826;6.214;2022-07-06T10:31:08;22.80;43.60
54938;DHT22;52756;52.826;6.214;2022-07-06T10:33:35;22.80;43.50
54938;DHT22;52756;52.826;6.214;2022-07-06T10:36:02;22.90;43.20
54938;DHT22;52756;52.826;6.214;2022-07-06T10:38:32;22.90;43.50
54938;DHT22;52756;52.826;6.214;2022-07-06T10:41:03;22.90;43.50
54938;DHT22;52756;52.826;6.214;2022-07-06T10:43:36;23.00;43.50
54938;DHT22;52756;52.826;6.214;2022-07-06T10:46:07;23.10;43.40
54938;DHT22;52756;52.826;6.214;2022-07-06T10:48:44;23.20;43.10
54938;DHT22;52756;52.826;6.214;2022-07-06T10:51:24;23.20;43.10
54938;DHT22;52756;52.826;6.214;2022-07-06T10:54:02;23.20;43.10
54938;DHT22;52756;52.826;6.214;2022-07-06T10:56:42;23.20;43.00
54938;DHT22;52756;52.826;6.214;2022-07-06T10:59:19;23.20;43.20
54938;DHT22;52756;52.826;6.214;2022-07-06T11:04:43;23.20;42.80
54938;DHT22;52756;52.826;6.214;2022-07-06T11:07:19;23.20;43.00
54938;DHT22;52756;52.826;6.214;2022-07-06T11:09:56;23.30;42.40
54938;DHT22;52756;52.826;6.214;2022-07-06T11:12:22;23.30;41.80
54938;DHT22;52756;52.826;6.214;2022-07-06T11:14:50;23.30;42.10
54938;DHT22;52756;52.826;6.214;2022-07-06T11:17:16;23.30;42.40
54938;DHT22;52756;52.826;6.214;2022-07-06T11:20:10;23.30;42.40
54938;DHT22;52756;52.826;6.214;2022-07-06T11:22:38;23.30;42.80
54938;DHT22;52756;52.826;6.214;2022-07-06T11:25:05;23.30;42.30
54938;DHT22;52756;52.826;6.214;2022-07-06T11:27:32;23.30;41.90
54938;DHT22;52756;52.826;6.214;2022-07-06T11:29:59;23.40;42.00
54938;DHT22;52756;52.826;6.214;2022-07-06T11:32:26;23.40;42.00
54938;DHT22;52756;52.826;6.214;2022-07-06T11:34:52;23.50;42.00
54938;DHT22;52756;52.826;6.214;2022-07-06T11:37:18;23.60;42.10
54938;DHT22;52756;52.826;6.214;2022-07-06T11:39:46;23.60;42.40
54938;DHT22;52756;52.826;6.214;2022-07-06T11:42:14;23.70;42.90
54938;DHT22;52756;52.826;6.214;2022-07-06T11:44:41;23.80;42.50
54938;DHT22;52756;52.826;6.214;2022-07-06T11:47:08;23.90;41.60
54938;DHT22;52756;52.826;6.214;2022-07-06T11:49:35;24.00;41.40
54938;DHT22;52756;52.826;6.214;2022-07-06T11:52:08;24.10;41.10
54938;DHT22;52756;52.826;6.214;2022-07-06T11:54:36;24.20;40.80
54938;DHT22;52756;52.826;6.214;2022-07-06T11:57:01;24.20;40.90
54938;DHT22;52756;52.826;6.214;2022-07-06T11:59:36;24.30;40.10
54938;DHT22;52756;52.826;6.214;2022-07-06T12:02:11;24.30;39.40
54938;DHT22;52756;52.826;6.214;2022-07-06T12:04:41;24.40;38.90
54938;DHT22;52756;52.826;6.214;2022-07-06T12:07:10;24.40;39.10
54938;DHT22;52756;52.826;6.214;2022-07-06T12:09:39;24.50;39.20
54938;DHT22;52756;52.826;6.214;2022-07-06T12:12:06;24.60;39.30
54938;DHT22;52756;52.826;6.214;2022-07-06T12:14:35;24.70;38.80
54938;DHT22;52756;52.826;6.214;2022-07-06T12:17:08;24.80;38.00
54938;DHT22;52756;52.826;6.214;2022-07-06T12:19:35;24.80;37.60
54938;DHT22;52756;52.826;6.214;2022-07-06T12:22:01;24.90;38.00
54938;DHT22;52756;52.826;6.214;2022-07-06T12:24:29;24.90;37.90
54938;DHT22;52756;52.826;6.214;2022-07-06T12:27:15;24.90;37.90
54938;DHT22;52756;52.826;6.214;2022-07-06T12:29:42;25.00;37.70
54938;DHT22;52756;52.826;6.214;2022-07-06T12:32:18;25.00;37.80
54938;DHT22;52756;52.826;6.214;2022-07-06T12:34:44;25.10;38.00
54938;DHT22;52756;52.826;6.214;2022-07-06T12:37:10;25.20;38.10
54938;DHT22;52756;52.826;6.214;2022-07-06T12:39:47;25.30;38.40
54938;DHT22;52756;52.826;6.214;2022-07-06T12:42:16;25.40;37.90
54938;DHT22;52756;52.826;6.214;2022-07-06T12:44:50;25.40;37.60
54938;DHT22;52756;52.826;6.214;2022-07-06T12:47:23;25.40;37.70
54938;DHT22;52756;52.826;6.214;2022-07-06T12:50:05;25.40;37.80
54938;DHT22;52756;52.826;6.214;2022-07-06T12:52:32;25.50;38.20
54938;DHT22;52756;52.826;6.214;2022-07-06T12:55:00;25.50;37.90
54938;DHT22;52756;52.826;6.214;2022-07-06T12:57:26;25.50;38.10
54938;DHT22;52756;52.826;6.214;2022-07-06T13:05:01;25.60;37.80
54938;DHT22;52756;52.826;6.214;2022-07-06T13:07:28;25.60;37.80
54938;DHT22;52756;52.826;6.214;2022-07-06T13:09:56;25.60;37.50
54938;DHT22;52756;52.826;6.214;2022-07-06T13:12:22;25.70;37.40
54938;DHT22;52756;52.826;6.214;2022-07-06T13:14:48;25.70;37.30
54938;DHT22;52756;52.826;6.214;2022-07-06T13:17:14;25.70;37.40
54938;DHT22;52756;52.826;6.214;2022-07-06T13:19:40;25.70;37.50
54938;DHT22;52756;52.826;6.214;2022-07-06T13:22:06;25.70;37.70
54938;DHT22;52756;52.826;6.214;2022-07-06T13:24:32;25.70;37.70
54938;DHT22;52756;52.826;6.214;2022-07-06T13:26:58;25.70;37.60
54938;DHT22;52756;52.826;6.214;2022-07-06T13:29:24;25.70;37.40
54938;DHT22;52756;52.826;6.214;2022-07-06T13:31:50;25.70;37.20
54938;DHT22;52756;52.826;6.214;2022-07-06T13:34:15;25.70;37.50
54938;DHT22;52756;52.826;6.214;2022-07-06T13:36:42;25.70;37.40
54938;DHT22;52756;52.826;6.214;2022-07-06T13:39:08;25.70;37.30
54938;DHT22;52756;52.826;6.214;2022-07-06T13:41:35;25.70;37.50
54938;DHT22;52756;52.826;6.214;2022-07-06T13:44:02;25.60;37.50
54938;DHT22;52756;52.826;6.214;2022-07-06T13:46:28;25.60;37.30
54938;DHT22;52756;52.826;6.214;2022-07-06T13:48:55;25.60;37.30
54938;DHT22;52756;52.826;6.214;2022-07-06T13:51:23;25.50;36.70
54938;DHT22;52756;52.826;6.214;2022-07-06T13:53:50;25.50;37.20
54938;DHT22;52756;52.826;6.214;2022-07-06T13:56:16;25.40;37.10
54938;DHT22;52756;52.826;6.214;2022-07-06T13:58:42;25.40;37.30
54938;DHT22;52756;52.826;6.214;2022-07-06T14:01:08;25.40;37.40
54938;DHT22;52756;52.826;6.214;2022-07-06T14:03:34;25.30;37.40
54938;DHT22;52756;52.826;6.214;2022-07-06T14:06:02;25.20;37.40
54938;DHT22;52756;52.826;6.214;2022-07-06T14:08:28;25.10;37.40
54938;DHT22;52756;52.826;6.214;2022-07-06T14:10:54;25.00;37.70
54938;DHT22;52756;52.826;6.214;2022-07-06T14:13:21;24.90;38.00
54938;DHT22;52756;52.826;6.214;2022-07-06T14:15:48;24.80;38.10
54938;DHT22;52756;52.826;6.214;2022-07-06T14:18:14;24.70;38.30
54938;DHT22;52756;52.826;6.214;2022-07-06T14:20:43;24.60;38.40
54938;DHT22;52756;52.826;6.214;2022-07-06T14:23:09;24.50;38.40
54938;DHT22;52756;52.826;6.214;2022-07-06T14:25:35;24.40;38.30
54938;DHT22;52756;52.826;6.214;2022-07-06T14:28:00;24.30;38.60
54938;DHT22;52756;52.826;6.214;2022-07-06T14:30:27;24.20;38.80
54938;DHT22;52756;52.826;6.214;2022-07-06T14:32:53;24.10;39.00
54938;DHT22;52756;52.826;6.214;2022-07-06T14:35:19;24.00;39.30
54938;DHT22;52756;52.826;6.214;2022-07-06T14:37:44;23.90;39.40
54938;DHT22;52756;52.826;6.214;2022-07-06T14:40:10;23.80;39.60
54938;DHT22;52756;52.826;6.214;2022-07-06T14:42:36;23.70;39.60
54938;DHT22;52756;52.826;6.214;2022-07-06T14:45:02;23.60;39.90
54938;DHT22;52756;52.826;6.214;2022-07-06T14:47:27;23.50;40.00
54938;DHT22;52756;52.826;6.214;2022-07-06T14:49:53;23.40;40.10
54938;DHT22;52756;52.826;6.214;2022-07-06T14:52:20;23.40;40.20
54938;DHT22;52756;52.826;6.214;2022-07-06T14:54:45;23.30;40.30
54938;DHT22;52756;52.826;6.214;2022-07-06T14:57:11;23.20;40.10
54938;DHT22;52756;52.826;6.214;2022-07-06T14:59:36;23.20;40.10
54938;DHT22;52756;52.826;6.214;2022-07-06T15:02:03;23.10;40.30
54938;DHT22;52756;52.826;6.214;2022-07-06T15:04:29;23.00;40.60
54938;DHT22;52756;52.826;6.214;2022-07-06T15:06:58;23.00;40.60
54938;DHT22;52756;52.826;6.214;2022-07-06T15:09:24;22.90;40.60
54938;DHT22;52756;52.826;6.214;2022-07-06T15:11:51;22.90;40.60
54938;DHT22;52756;52.826;6.214;2022-07-06T15:14:17;22.80;40.70
54938;DHT22;52756;52.826;6.214;2022-07-06T15:16:43;22.80;40.80
54938;DHT22;52756;52.826;6.214;2022-07-06T15:19:10;22.70;41.30
54938;DHT22;52756;52.826;6.214;2022-07-06T15:21:35;22.60;41.40
54938;DHT22;52756;52.826;6.214;2022-07-06T15:24:01;22.60;41.80
54938;DHT22;52756;52.826;6.214;2022-07-06T15:26:27;22.50;42.00
54938;DHT22;52756;52.826;6.214;2022-07-06T15:28:52;22.50;42.00
54938;DHT22;52756;52.826;6.214;2022-07-06T15:31:18;22.50;43.30
54938;DHT22;52756;52.826;6.214;2022-07-06T15:33:44;22.40;44.10
54938;DHT22;52756;52.826;6.214;2022-07-06T15:36:09;22.30;44.60
54938;DHT22;52756;52.826;6.214;2022-07-06T15:38:36;22.10;45.20